aviador You're here:

KCLK Decoded Metar

CLINTON in OK, USA
Report Time2017-03-28 06:15:00
UTC Time2017-03-28 06:10:30
Flight Rules vfr VFR
Wind060° at 08 kt
W.Decomp.*RWY 35: 3.6 kt HW 7.1 kt RCW
RWY 13: 1.8 kt HW 7.8 kt LCW
W.Rank060° ranks 17
Current wind is above 060° avg. (7.6)
Visibility9999 m
Phenomena:N/A
Clouds:N/A
Expected CloudBase > 1,600 ft AGL from Temp-Dew spread
CeilingNone
Temp10°C (ISA -2)
Dew Point06°C (76% RH)
AAT6.2°C
QNH1015 hPa
Density Alt1,467 ft
Elevation1,614 ft
Report Wrong Elevation
Raw Report
KCLK 280615Z AUTO 06008KT 10SM CLR 10/06 A2996 RMK AO2=

Extra information for KCLK:More info

Metar Taf Metar & Taf Last 4 Metars F.Rules Stats Wind Profile Meteogram Temp Stats Airport Information Weather charts Add Link Nearby VenuesMetar ALERT Operation Metar Decoded Social comments

AIRNAV info for KCLK